createdAt,value
2023-05-02T06:23:08.349Z,12.00
2023-05-02T06:25:37.870Z,12.10
2023-05-02T06:28:04.519Z,12.30
2023-05-02T06:30:31.129Z,12.40
2023-05-02T06:32:57.703Z,12.40
2023-05-02T06:35:24.290Z,12.50
2023-05-02T06:37:51.086Z,12.40
2023-05-02T06:40:17.738Z,12.40
2023-05-02T06:42:44.312Z,12.20
2023-05-02T06:45:11.241Z,12.10
2023-05-02T06:47:37.873Z,12.20
2023-05-02T06:50:04.803Z,12.10
2023-05-02T06:52:31.467Z,12.00
2023-05-02T06:54:58.240Z,11.90
2023-05-02T06:57:25.305Z,11.90
2023-05-02T06:59:51.949Z,11.80
2023-05-02T07:02:18.606Z,11.80
2023-05-02T07:04:45.272Z,11.70
2023-05-02T07:07:11.963Z,11.70
2023-05-02T07:09:38.568Z,11.70
2023-05-02T07:12:06.763Z,11.80
2023-05-02T07:14:33.699Z,11.90
2023-05-02T07:17:00.446Z,11.90
2023-05-02T07:19:27.108Z,11.90
2023-05-02T07:21:53.723Z,11.70
2023-05-02T07:24:20.511Z,11.70
2023-05-02T07:26:47.568Z,11.80
2023-05-02T07:29:14.159Z,12.00
2023-05-02T07:31:40.897Z,12.20
2023-05-02T07:34:07.537Z,12.20
2023-05-02T07:36:34.190Z,12.20
2023-05-02T07:39:00.809Z,12.30
2023-05-02T07:41:27.384Z,12.40
2023-05-02T07:43:54.207Z,12.50
2023-05-02T07:46:21.389Z,12.50
2023-05-02T07:48:48.156Z,12.60
2023-05-02T07:51:14.866Z,12.70
2023-05-02T07:53:41.524Z,12.80
2023-05-02T07:56:08.805Z,12.90
2023-05-02T07:58:37.078Z,12.90
2023-05-02T08:01:04.352Z,12.90
2023-05-02T08:03:31.321Z,12.90
2023-05-02T08:05:58.147Z,12.90
2023-05-02T08:08:25.141Z,13.10
2023-05-02T08:10:51.826Z,12.60
2023-05-02T08:13:18.479Z,12.80
2023-05-02T08:15:45.978Z,12.80
2023-05-02T08:18:13.000Z,12.90
2023-05-02T08:20:39.601Z,12.90
2023-05-02T08:23:06.202Z,12.90
2023-05-02T08:25:33.355Z,13.10
2023-05-02T08:28:00.010Z,13.30
2023-05-02T08:30:26.682Z,13.50
2023-05-02T08:32:53.286Z,13.60
2023-05-02T08:35:19.943Z,13.70
2023-05-02T16:04:49.746Z,21.40
2023-05-02T16:07:16.348Z,21.90
2023-05-02T16:09:43.015Z,22.80
2023-05-02T16:12:09.672Z,23.10
2023-05-02T16:14:36.644Z,22.40
2023-05-02T16:17:03.924Z,21.80
2023-05-02T16:19:30.736Z,21.90
2023-05-02T16:21:57.444Z,22.00
2023-05-02T18:13:11.078Z,14.50
2023-05-02T18:15:37.671Z,14.40
2023-05-02T18:18:04.319Z,14.20
2023-05-02T18:20:31.063Z,14.10
2023-05-02T18:22:59.098Z,13.90
2023-05-02T18:25:26.037Z,13.70
2023-05-02T18:27:52.684Z,13.50
2023-05-02T18:30:20.037Z,13.30
2023-05-02T18:32:46.844Z,13.10
2023-05-02T18:35:13.418Z,13.00
2023-05-02T18:37:40.002Z,12.80
2023-05-02T18:40:08.396Z,12.60
2023-05-02T18:42:35.616Z,12.50
2023-05-02T18:45:02.778Z,12.30
2023-05-02T18:47:31.022Z,12.20
2023-05-02T18:49:59.531Z,12.10
2023-05-02T18:52:26.426Z,12.00
2023-05-02T18:54:53.012Z,12.00
2023-05-02T18:57:19.574Z,11.90
2023-05-02T18:59:46.199Z,11.80
2023-05-02T19:02:15.137Z,11.80
2023-05-02T19:04:41.791Z,11.70
2023-05-02T19:07:08.671Z,11.70
2023-05-02T19:09:35.244Z,11.60
2023-05-02T19:12:01.826Z,11.60
2023-05-02T19:14:28.366Z,11.60
2023-05-02T19:16:54.941Z,11.70
2023-05-02T19:19:21.589Z,11.70
2023-05-02T19:21:49.113Z,11.70
2023-05-02T19:24:16.683Z,11.70
2023-05-02T19:26:43.242Z,11.60
2023-05-02T19:29:09.883Z,11.50
2023-05-02T19:31:36.876Z,11.40
2023-05-02T19:34:04.006Z,11.30
2023-05-02T19:36:31.097Z,11.40
2023-05-02T19:38:58.174Z,11.20
2023-05-02T19:41:25.108Z,11.10
2023-05-02T19:43:52.279Z,11.10
2023-05-02T19:46:19.532Z,11.10
2023-05-02T19:48:46.258Z,11.00
2023-05-02T19:51:12.979Z,10.90
2023-05-02T19:53:39.559Z,10.90
2023-05-02T19:56:09.121Z,10.80
2023-05-02T19:58:35.871Z,10.80
2023-05-02T20:01:03.204Z,10.60
2023-05-02T20:03:29.833Z,10.60
2023-05-02T20:05:58.255Z,10.60
2023-05-02T20:08:27.500Z,10.50
2023-05-02T20:10:55.167Z,10.50
2023-05-02T20:13:21.905Z,10.40
2023-05-02T20:15:52.666Z,10.50
2023-05-02T20:18:19.846Z,10.50
2023-05-02T20:20:46.706Z,10.60
2023-05-02T20:23:13.728Z,10.90
2023-05-02T20:25:41.223Z,10.50
2023-05-02T20:28:09.242Z,10.50
2023-05-02T20:30:35.973Z,10.40
2023-05-02T20:33:13.956Z,10.40
2023-05-02T20:35:41.940Z,10.40
2023-05-02T20:38:08.506Z,10.40
2023-05-02T20:40:37.716Z,10.50
2023-05-02T20:43:06.166Z,10.60
2023-05-02T20:45:32.995Z,10.70
2023-05-02T20:47:59.638Z,10.80
2023-05-02T20:50:26.826Z,10.80
2023-05-02T20:52:54.267Z,10.70
2023-05-02T20:55:22.658Z,10.70
2023-05-02T20:57:53.106Z,10.80
2023-05-02T21:00:23.624Z,10.80
2023-05-02T21:02:50.638Z,10.80
2023-05-02T21:05:17.403Z,10.90
2023-05-02T21:07:44.674Z,10.80
2023-05-02T21:10:11.438Z,10.70
2023-05-02T21:12:38.330Z,10.90
2023-05-02T21:15:05.932Z,10.80
2023-05-02T21:17:32.633Z,10.80
2023-05-02T21:19:59.365Z,10.80
2023-05-02T21:22:26.917Z,10.70
2023-05-02T21:24:53.511Z,10.70
2023-05-02T21:27:20.309Z,10.60
2023-05-02T21:29:46.908Z,10.60
2023-05-02T21:32:13.783Z,10.60
2023-05-02T21:34:40.543Z,10.50
2023-05-02T21:37:07.117Z,10.40
2023-05-02T21:39:33.762Z,10.40
2023-05-02T21:42:01.363Z,10.30
2023-05-02T21:44:27.939Z,10.30
2023-05-02T21:46:54.580Z,10.30
2023-05-02T21:49:21.299Z,10.20
2023-05-02T21:51:47.877Z,10.00
2023-05-02T21:54:14.504Z,9.80
2023-05-02T21:56:41.088Z,9.80
2023-05-02T21:59:07.721Z,9.70
2023-05-02T22:01:34.262Z,9.60
2023-05-02T22:04:00.912Z,9.50
2023-05-02T22:06:28.362Z,9.40
2023-05-02T22:08:54.980Z,9.30
2023-05-02T22:11:24.158Z,9.40
2023-05-02T22:13:50.896Z,9.30
2023-05-02T22:16:17.564Z,9.20
2023-05-02T22:18:44.646Z,9.10
2023-05-02T22:21:12.028Z,9.10
2023-05-02T22:23:38.976Z,8.90
2023-05-02T22:26:05.817Z,8.90
2023-05-02T22:28:32.478Z,8.90
2023-05-02T22:30:59.079Z,9.10
2023-05-02T22:33:25.617Z,8.80
2023-05-02T22:35:52.255Z,8.80
2023-05-02T22:38:19.985Z,8.80
2023-05-02T22:40:46.683Z,9.00
2023-05-02T22:43:13.300Z,9.10
2023-05-02T22:45:40.607Z,8.80
2023-05-02T22:48:07.683Z,8.70
2023-05-02T22:50:34.353Z,8.70
2023-05-02T22:53:03.727Z,8.60
2023-05-02T22:55:30.560Z,8.50
2023-05-02T22:57:57.265Z,8.60
2023-05-02T23:00:24.925Z,8.70
2023-05-02T23:02:51.621Z,8.30
2023-05-02T23:05:18.718Z,8.20
2023-05-02T23:07:45.370Z,8.50
2023-05-02T23:10:12.086Z,8.10
2023-05-02T23:12:39.074Z,8.20
2023-05-02T23:15:06.846Z,8.30
2023-05-02T23:17:37.531Z,8.00
2023-05-02T23:20:05.230Z,8.00
2023-05-02T23:22:35.271Z,8.10
2023-05-02T23:25:01.874Z,8.00
2023-05-02T23:27:28.461Z,8.10
2023-05-02T23:29:55.042Z,8.20
2023-05-02T23:32:22.627Z,8.00
2023-05-02T23:34:50.264Z,7.90
2023-05-02T23:37:16.859Z,7.90
2023-05-02T23:39:43.446Z,7.90
2023-05-02T23:42:10.244Z,7.90
2023-05-02T23:44:36.809Z,8.20
2023-05-02T23:47:03.454Z,7.90
2023-05-02T23:49:30.073Z,8.30
2023-05-02T23:51:56.656Z,7.90
2023-05-02T23:54:23.329Z,7.80
2023-05-02T23:56:49.899Z,7.80
2023-05-02T23:59:16.523Z,7.80
